Goloson International Airport
MHLC : now visible

Airfield :











YOU CAN JOIN US ON...

 
LOGIN :

Register | Disclaimer

   EN    FR    IT 

 









Legend :    VFR   Marginal VFR   IFR   Intensive IFR   Very Intensive IFR
Visi :
Ceiling :
>= 8 km
>= 3000ft
5 to 8 km
1000 to 3000 ft
1500m to 5 km
500 to 1000 ft
800 to 1500m
200 to 500 ft
< 800m
< 200 ft
Symbols :   Thunderstorms  Fog  Heavy snow  Heavy precipitations  Wind > 20 kt







- Airport Elevation : 49 ft
- IATA code : LCE


MHLC - Goloson International

CURRENT METAR :
  • 220700Z 00000KT 9999 FEW028 25/24 Q1008 A2977 NOSIG

EXPIRED METARs :
  • 220600Z 00000KT 9999 FEW028 25/24 Q1008 A2977 NOSIG
  • 220500Z 00000KT 9999 FEW028 25/24 Q1009 A2980 NOSIG

TAF TAF MHLC
Valid from the 22 at 06:00 until the 23 at 06:00 UTC


220425Z 2206/2306 00000KT 9999 SCT026 TX31/2221Z TN23/2212Z
BECMG 2215/2217 05010KT SCT024TCU
BECMG 2223/2301 6000 TSRA SCT024CB BKN080
BECMG 2302/2304 8000 VCSH
MHTG FIR / North America



MET'MAP, your aeronautical weather chart ! - Copyright ORBIFLY December 2007 - Disclaimer

ORBIFLY MET'MAP TEAM :

Programming & Development : Alexandra Zaïnal
Concept & Development : Baudouin d'Aumeries
Co-Development & Prog : Marc-Olivier Méhu
Technical & hardware support : Manuel Goepfert

Contact : metmap@orbifly.com




SOURCES & CREDITS :

   NOAA       Earth
Advisory